Time;durP1;ratioP1;P1;durP2;ratioP2;P2;SDS_P1;SDS_P2;PMS_P1;PMS_P2;Temp;Humidity;BMP_temperature;BMP_pressure;BME280_temperature;BME280_humidity;BME280_pressure;Samples;Min_cycle;Max_cycle;Signal;HPM_P1;HPM_P2
2020/12/07 00:01:25;;;;;;;;;;;19.40;83.90;;;;;;1853072;77;20200;-76
2020/12/07 00:03:51;;;;;;;;;;;19.40;83.90;;;;;;1854325;77;20170;-76
2020/12/07 00:06:21;;;;;;;;;;;19.40;83.40;;;;;;1856920;76;20307;-76
2020/12/07 00:08:52;;;;;;;;;;;19.50;83.30;;;;;;1852501;76;20275;-76
2020/12/07 00:11:25;;;;;;;;;;;19.60;83.30;;;;;;1849692;76;20194;-77
2020/12/07 00:13:56;;;;;;;;;;;19.60;82.30;;;;;;1855126;77;20189;-76
2020/12/07 00:16:29;;;;;;;;;;;19.70;81.00;;;;;;1855423;76;20208;-76
2020/12/07 00:18:58;;;;;;;;;;;19.80;80.00;;;;;;1849002;76;20209;-76
2020/12/07 00:21:28;;;;;;;;;;;19.90;79.40;;;;;;1858819;77;20174;-76
2020/12/07 00:23:58;;;;;;;;;;;19.90;79.20;;;;;;1854838;77;20236;-76
2020/12/07 00:26:33;;;;;;;;;;;20.00;79.60;;;;;;1854260;77;20535;-76
2020/12/07 00:29:01;;;;;;;;;;;20.10;79.10;;;;;;1851449;76;20141;-76
2020/12/07 00:31:32;;;;;;;;;;;20.20;78.50;;;;;;1858287;75;20248;-77
2020/12/07 00:34:02;;;;;;;;;;;20.20;78.30;;;;;;1857450;76;20169;-77
2020/12/07 00:36:32;;;;;;;;;;;20.30;77.40;;;;;;1853562;76;20537;-77
2020/12/07 00:39:02;;;;;;;;;;;20.30;76.70;;;;;;1848210;77;20464;-77
2020/12/07 00:41:31;;;;;;;;;;;20.30;78.00;;;;;;1851560;77;20170;-77
2020/12/07 00:44:10;;;;;;;;;;;20.40;77.70;;;;;;1851603;76;20201;-76
2020/12/07 00:46:40;;;;;;;;;;;20.40;77.00;;;;;;1847503;77;20527;-68
2020/12/07 00:49:10;;;;;;;;;;;20.50;77.00;;;;;;1851401;76;20418;-68
2020/12/07 00:51:40;;;;;;;;;;;20.50;77.40;;;;;;1855845;76;20177;-68
2020/12/07 00:54:10;;;;;;;;;;;20.60;77.50;;;;;;1848449;76;20500;-69
2020/12/07 00:56:40;;;;;;;;;;;20.60;77.00;;;;;;1837721;77;20502;-69
2020/12/07 00:59:11;;;;;;;;;;;20.70;76.90;;;;;;1848964;77;20860;-69
2020/12/07 01:01:43;;;;;;;;;;;20.70;77.30;;;;;;1856496;75;20476;-69
2020/12/07 01:04:30;;;;;;;;;;;20.80;77.60;;;;;;1854907;77;20165;-69
2020/12/07 01:07:00;;;;;;;;;;;20.90;77.30;;;;;;1854973;77;20170;-69
2020/12/07 01:09:33;;;;;;;;;;;21.00;77.20;;;;;;1856390;77;20267;-69
2020/12/07 01:12:04;;;;;;;;;;;21.00;77.80;;;;;;1855921;77;20247;-69
2020/12/07 01:14:34;;;;;;;;;;;21.10;77.70;;;;;;1859789;77;20236;-68
2020/12/07 01:17:04;;;;;;;;;;;21.20;76.00;;;;;;1848708;76;20227;-69
2020/12/07 01:19:34;;;;;;;;;;;21.20;77.00;;;;;;1859773;75;20517;-69
2020/12/07 01:22:05;;;;;;;;;;;21.30;76.30;;;;;;1860191;77;20239;-69
2020/12/07 01:24:35;;;;;;;;;;;21.40;77.60;;;;;;1850639;77;20199;-68
2020/12/07 01:27:07;;;;;;;;;;;21.50;75.40;;;;;;1859492;77;20244;-68
2020/12/07 01:35:17;;;;;;;;;;;21.60;75.80;;;;;;1859629;76;20499;-68
2020/12/07 01:37:47;;;;;;;;;;;21.70;74.80;;;;;;1862530;76;20192;-68
2020/12/07 01:40:17;;;;;;;;;;;21.70;75.10;;;;;;1854336;76;20261;-68
2020/12/07 01:42:47;;;;;;;;;;;21.80;74.80;;;;;;1877774;75;20255;-67
2020/12/07 01:45:17;;;;;;;;;;;21.80;75.10;;;;;;1861570;76;20221;-68
2020/12/07 01:47:47;;;;;;;;;;;21.90;74.60;;;;;;1875566;75;20577;-69
2020/12/07 01:50:17;;;;;;;;;;;22.00;74.40;;;;;;1876371;75;20205;-69
2020/12/07 01:52:47;;;;;;;;;;;22.00;74.80;;;;;;1871685;76;20138;-69
2020/12/07 01:55:17;;;;;;;;;;;22.00;74.40;;;;;;1853262;77;20242;-69
2020/12/07 01:57:48;;;;;;;;;;;22.10;74.20;;;;;;1850433;77;20218;-70
2020/12/07 02:00:17;;;;;;;;;;;22.10;73.90;;;;;;1835077;77;20499;-70
2020/12/07 02:02:48;;;;;;;;;;;22.20;73.50;;;;;;1839853;77;20257;-71
2020/12/07 02:05:19;;;;;;;;;;;22.20;73.50;;;;;;1830836;77;20189;-69
2020/12/07 02:07:50;;;;;;;;;;;22.30;72.90;;;;;;1831213;78;20207;-71
2020/12/07 02:10:20;;;;;;;;;;;22.30;72.70;;;;;;1834904;77;20279;-70
2020/12/07 02:12:50;;;;;;;;;;;22.40;73.00;;;;;;1836880;76;20170;-69
2020/12/07 02:15:19;;;;;;;;;;;22.40;72.70;;;;;;1883260;75;20166;-71
2020/12/07 02:17:53;;;;;;;;;;;22.40;72.30;;;;;;1884606;75;20338;-72
2020/12/07 02:20:25;;;;;;;;;;;22.50;72.40;;;;;;1885189;75;20538;-73
2020/12/07 02:22:58;;;;;;;;;;;22.50;72.30;;;;;;1891545;75;20201;-72
2020/12/07 02:25:28;;;;;;;;;;;22.50;71.80;;;;;;1885311;75;20158;-75
2020/12/07 02:27:58;;;;;;;;;;;22.60;72.30;;;;;;1888148;75;20244;-71
2020/12/07 02:30:28;;;;;;;;;;;22.60;72.40;;;;;;1860963;76;20215;-72
2020/12/07 02:33:02;;;;;;;;;;;22.70;72.30;;;;;;1827344;77;20241;-72
2020/12/07 02:35:29;;;;;;;;;;;22.80;72.20;;;;;;1824577;77;20257;-71
2020/12/07 02:37:59;;;;;;;;;;;22.80;72.00;;;;;;1862649;76;20183;-72
2020/12/07 02:40:29;;;;;;;;;;;22.80;72.90;;;;;;1858074;76;20226;-71
2020/12/07 02:42:59;;;;;;;;;;;22.80;71.70;;;;;;1850605;76;20254;-71
2020/12/07 02:45:30;;;;;;;;;;;22.80;72.00;;;;;;1858982;76;20232;-71
2020/12/07 02:48:26;;;;;;;;;;;22.90;72.20;;;;;;1860723;76;20173;-71
2020/12/07 02:50:56;;;;;;;;;;;23.00;73.20;;;;;;1830492;77;20215;-70
2020/12/07 02:53:29;;;;;;;;;;;23.00;72.00;;;;;;1825927;77;20121;-71
2020/12/07 02:55:59;;;;;;;;;;;23.10;72.00;;;;;;1827142;77;20211;-71
2020/12/07 02:58:30;;;;;;;;;;;23.10;71.80;;;;;;1824530;77;20223;-75
2020/12/07 03:01:00;;;;;;;;;;;23.20;71.60;;;;;;1824186;77;20220;-71
2020/12/07 03:03:30;;;;;;;;;;;23.20;71.80;;;;;;1825399;77;20196;-71
2020/12/07 03:06:00;;;;;;;;;;;23.30;71.30;;;;;;1825673;77;20561;-73
2020/12/07 03:08:30;;;;;;;;;;;23.40;71.20;;;;;;1825873;77;20467;-71
2020/12/07 03:11:00;;;;;;;;;;;23.50;71.00;;;;;;1827027;77;20215;-68
2020/12/07 03:13:30;;;;;;;;;;;23.50;70.60;;;;;;1832733;77;20182;-69
2020/12/07 03:16:01;;;;;;;;;;;23.60;70.50;;;;;;1825624;77;20318;-68
2020/12/07 03:18:33;;;;;;;;;;;23.60;70.20;;;;;;1825913;77;20179;-68
2020/12/07 03:21:03;;;;;;;;;;;23.70;70.00;;;;;;1833159;77;20428;-69
2020/12/07 03:23:33;;;;;;;;;;;23.80;69.80;;;;;;1814579;77;20258;-68
2020/12/07 03:26:14;;;;;;;;;;;23.90;69.70;;;;;;1824137;77;20235;-69
2020/12/07 03:28:44;;;;;;;;;;;24.00;69.50;;;;;;1828806;77;20183;-67
2020/12/07 03:31:14;;;;;;;;;;;24.10;69.30;;;;;;1826080;77;20277;-69
2020/12/07 03:33:44;;;;;;;;;;;24.10;69.10;;;;;;1837068;77;20172;-68
2020/12/07 03:36:14;;;;;;;;;;;24.20;69.00;;;;;;1842458;77;20172;-68
2020/12/07 03:38:44;;;;;;;;;;;24.20;68.90;;;;;;1833177;77;20544;-68
2020/12/07 03:41:14;;;;;;;;;;;24.30;68.70;;;;;;1800476;78;20462;-70
2020/12/07 03:43:43;;;;;;;;;;;24.40;68.60;;;;;;1831098;76;20250;-68
2020/12/07 03:46:13;;;;;;;;;;;24.50;67.80;;;;;;1829843;76;20199;-69
2020/12/07 03:48:43;;;;;;;;;;;24.60;67.90;;;;;;1831212;76;20168;-69
2020/12/07 03:51:14;;;;;;;;;;;24.70;67.80;;;;;;1825561;77;20192;-70
2020/12/07 03:53:46;;;;;;;;;;;24.80;67.60;;;;;;1822366;77;20428;-69
2020/12/07 03:56:16;;;;;;;;;;;24.90;66.70;;;;;;1824133;77;20206;-69
2020/12/07 03:58:46;;;;;;;;;;;25.00;66.90;;;;;;1820107;77;20237;-68
2020/12/07 04:01:16;;;;;;;;;;;25.00;66.60;;;;;;1825015;77;20186;-67
2020/12/07 04:03:47;;;;;;;;;;;25.20;66.70;;;;;;1814157;77;20268;-67
2020/12/07 04:08:46;;;;;;;;;;;25.40;65.80;;;;;;1833683;77;20227;-68
2020/12/07 04:11:17;;;;;;;;;;;25.50;64.30;;;;;;1824835;77;20207;-68
2020/12/07 04:13:47;;;;;;;;;;;25.70;64.40;;;;;;1825197;77;20248;-67
2020/12/07 04:16:17;;;;;;;;;;;25.80;63.70;;;;;;1823924;77;20195;-67
2020/12/07 04:19:03;;;;;;;;;;;25.90;64.20;;;;;;1794522;79;20149;-68
2020/12/07 04:21:24;;;;;;;;;;;25.90;64.50;;;;;;1807255;77;20251;-68
2020/12/07 04:23:57;;;;;;;;;;;26.10;63.50;;;;;;1828224;77;20148;-68
2020/12/07 04:26:27;;;;;;;;;;;26.10;63.30;;;;;;1821840;77;20238;-67
2020/12/07 04:28:59;;;;;;;;;;;26.20;62.70;;;;;;1794946;79;20638;-69
2020/12/07 04:31:28;;;;;;;;;;;26.20;62.50;;;;;;1760535;80;20189;-67
2020/12/07 04:33:58;;;;;;;;;;;26.30;62.70;;;;;;1827948;77;20223;-67
2020/12/07 04:36:30;;;;;;;;;;;26.40;61.90;;;;;;1818069;77;20187;-66
2020/12/07 04:39:00;;;;;;;;;;;26.40;62.20;;;;;;1823616;77;20253;-68
2020/12/07 04:41:32;;;;;;;;;;;26.50;61.00;;;;;;1852630;76;20352;-67
2020/12/07 04:44:02;;;;;;;;;;;26.60;61.80;;;;;;1858164;76;20539;-68
2020/12/07 04:46:33;;;;;;;;;;;26.60;62.20;;;;;;1851689;76;20162;-68
2020/12/07 04:49:10;;;;;;;;;;;26.70;60.70;;;;;;1854627;76;20203;-69
2020/12/07 04:51:37;;;;;;;;;;;26.80;61.40;;;;;;1838582;76;20192;-70
2020/12/07 04:54:12;;;;;;;;;;;26.90;60.60;;;;;;1841795;76;20212;-69
2020/12/07 04:56:44;;;;;;;;;;;27.10;59.90;;;;;;1848956;76;20185;-69
2020/12/07 04:59:15;;;;;;;;;;;27.10;59.60;;;;;;1853835;76;20214;-69
2020/12/07 05:01:45;;;;;;;;;;;27.20;60.00;;;;;;1848465;76;20191;-69
2020/12/07 05:04:16;;;;;;;;;;;27.20;60.80;;;;;;1849992;76;20155;-69
2020/12/07 05:06:47;;;;;;;;;;;27.20;60.20;;;;;;1850423;76;20197;-68
2020/12/07 05:09:22;;;;;;;;;;;27.20;60.00;;;;;;1847961;76;20505;-69
2020/12/07 05:11:53;;;;;;;;;;;27.30;60.00;;;;;;1852364;76;20178;-71
2020/12/07 05:14:23;;;;;;;;;;;27.30;59.30;;;;;;1825971;76;20190;-68
2020/12/07 05:16:54;;;;;;;;;;;27.30;59.90;;;;;;1854344;76;20155;-69
2020/12/07 05:19:25;;;;;;;;;;;27.40;57.90;;;;;;1844806;76;20223;-68
2020/12/07 05:21:57;;;;;;;;;;;27.40;59.00;;;;;;1816804;77;20172;-68
2020/12/07 05:24:27;;;;;;;;;;;27.40;57.70;;;;;;1847744;77;20201;-68
2020/12/07 05:26:57;;;;;;;;;;;27.40;59.10;;;;;;1850049;77;20248;-68
2020/12/07 05:29:35;;;;;;;;;;;27.50;59.10;;;;;;1849171;77;20200;-68
2020/12/07 05:31:58;;;;;;;;;;;27.60;59.40;;;;;;1847174;77;20469;-68
2020/12/07 05:34:28;;;;;;;;;;;27.60;59.30;;;;;;1850850;77;20193;-68
2020/12/07 05:36:58;;;;;;;;;;;27.60;58.70;;;;;;1847957;77;20200;-69
2020/12/07 05:39:27;;;;;;;;;;;27.60;57.80;;;;;;1850097;77;20559;-68
2020/12/07 05:41:58;;;;;;;;;;;27.70;58.00;;;;;;1850064;76;20887;-68
2020/12/07 05:44:31;;;;;;;;;;;27.70;58.80;;;;;;1841304;77;20193;-68
2020/12/07 05:47:04;;;;;;;;;;;27.80;58.90;;;;;;1849639;77;20249;-67
2020/12/07 05:49:35;;;;;;;;;;;27.80;58.70;;;;;;1852030;76;20166;-67
2020/12/07 05:52:06;;;;;;;;;;;27.80;57.30;;;;;;1846053;75;20182;-67
2020/12/07 05:54:37;;;;;;;;;;;27.90;57.20;;;;;;1844650;76;20438;-67
2020/12/07 05:57:08;;;;;;;;;;;27.90;57.50;;;;;;1837824;77;20182;-67
2020/12/07 05:59:40;;;;;;;;;;;27.90;57.20;;;;;;1845018;77;20209;-68
2020/12/07 06:02:12;;;;;;;;;;;27.90;57.00;;;;;;1815111;78;20158;-67
2020/12/07 06:04:43;;;;;;;;;;;27.90;57.90;;;;;;1811549;77;20256;-67
2020/12/07 06:07:14;;;;;;;;;;;27.90;57.90;;;;;;1841683;77;20135;-66
2020/12/07 06:09:45;;;;;;;;;;;28.00;57.40;;;;;;1843321;77;20226;-67
2020/12/07 06:12:16;;;;;;;;;;;28.00;56.40;;;;;;1844458;77;20249;-67
2020/12/07 06:14:49;;;;;;;;;;;28.00;56.90;;;;;;1844898;77;20251;-67
2020/12/07 06:17:20;;;;;;;;;;;28.00;57.20;;;;;;1845326;77;20441;-68
2020/12/07 06:19:54;;;;;;;;;;;28.00;56.80;;;;;;1853484;76;20243;-68
2020/12/07 06:22:41;;;;;;;;;;;28.10;56.90;;;;;;1826264;77;20205;-67
2020/12/07 06:25:15;;;;;;;;;;;28.10;57.00;;;;;;1818643;77;20283;-68
2020/12/07 06:27:51;;;;;;;;;;;28.20;56.30;;;;;;1829790;77;20211;-68
2020/12/07 06:30:21;;;;;;;;;;;28.20;55.40;;;;;;1823378;77;20846;-69
2020/12/07 06:32:51;;;;;;;;;;;28.30;55.50;;;;;;1847169;77;20229;-67
2020/12/07 06:35:22;;;;;;;;;;;28.30;56.20;;;;;;1829424;78;20238;-68
2020/12/07 06:37:52;;;;;;;;;;;28.30;55.00;;;;;;1817979;78;20175;-69
2020/12/07 06:40:26;;;;;;;;;;;28.30;55.60;;;;;;1824007;78;20214;-70
2020/12/07 06:42:54;;;;;;;;;;;28.30;55.90;;;;;;1823271;78;20559;-70
2020/12/07 06:45:28;;;;;;;;;;;28.20;54.90;;;;;;1828201;78;20167;-69
2020/12/07 06:47:59;;;;;;;;;;;28.30;55.60;;;;;;1810974;78;20186;-69
2020/12/07 06:50:31;;;;;;;;;;;28.30;55.20;;;;;;1821754;78;20244;-68
2020/12/07 06:53:00;;;;;;;;;;;28.30;56.00;;;;;;1835882;77;20188;-69
2020/12/07 06:55:30;;;;;;;;;;;28.40;55.10;;;;;;1826710;78;20176;-71
2020/12/07 06:57:59;;;;;;;;;;;28.40;55.50;;;;;;1813937;78;20205;-69
2020/12/07 07:00:30;;;;;;;;;;;28.40;55.50;;;;;;1815440;77;20190;-70
2020/12/07 07:03:01;;;;;;;;;;;28.40;54.30;;;;;;1820563;78;20780;-69
2020/12/07 07:05:31;;;;;;;;;;;28.40;54.40;;;;;;1817167;78;20245;-70
2020/12/07 07:08:03;;;;;;;;;;;28.40;54.50;;;;;;1818051;78;20555;-70
2020/12/07 07:10:32;;;;;;;;;;;28.40;54.40;;;;;;1821326;78;20496;-69
2020/12/07 07:13:02;;;;;;;;;;;28.50;54.40;;;;;;1821445;78;20237;-70
2020/12/07 07:15:34;;;;;;;;;;;28.50;54.50;;;;;;1821289;77;20159;-67
2020/12/07 07:18:06;;;;;;;;;;;28.50;53.70;;;;;;1813220;77;20459;-69
2020/12/07 07:20:37;;;;;;;;;;;28.50;54.60;;;;;;1812170;78;20259;-68
2020/12/07 07:23:07;;;;;;;;;;;28.50;54.70;;;;;;1807801;78;20496;-70
2020/12/07 07:28:12;;;;;;;;;;;28.50;54.60;;;;;;1804835;78;20223;-69
2020/12/07 07:30:42;;;;;;;;;;;28.60;54.60;;;;;;1789515;78;20225;-69
2020/12/07 07:33:14;;;;;;;;;;;28.60;54.50;;;;;;1799897;79;20228;-69
2020/12/07 07:35:44;;;;;;;;;;;28.60;53.90;;;;;;1790267;78;20201;-68
2020/12/07 07:38:15;;;;;;;;;;;28.50;54.90;;;;;;1786210;79;20284;-68
2020/12/07 07:40:45;;;;;;;;;;;28.50;54.20;;;;;;1814821;78;20848;-68
2020/12/07 07:43:15;;;;;;;;;;;28.50;53.60;;;;;;1751368;80;20463;-68
2020/12/07 07:45:53;;;;;;;;;;;28.50;53.80;;;;;;1819531;78;20117;-67
2020/12/07 07:48:23;;;;;;;;;;;28.50;53.70;;;;;;1822833;77;20168;-67
2020/12/07 07:51:15;;;;;;;;;;;28.50;53.70;;;;;;1799717;79;20218;-68
2020/12/07 08:16:09;;;;;;;;;;;28.40;54.70;;;;;;1850660;77;20217;-66
2020/12/07 08:18:41;;;;;;;;;;;28.40;53.80;;;;;;1785311;79;20523;-66
2020/12/07 08:21:13;;;;;;;;;;;28.40;53.90;;;;;;1794771;78;20277;-67
2020/12/07 08:23:44;;;;;;;;;;;28.40;55.00;;;;;;1831387;77;20235;-67
2020/12/07 08:26:16;;;;;;;;;;;28.40;54.80;;;;;;1827326;77;20226;-67
2020/12/07 08:28:49;;;;;;;;;;;28.30;55.00;;;;;;1829111;77;20207;-67
2020/12/07 08:31:18;;;;;;;;;;;28.30;54.10;;;;;;1827705;77;20268;-67
2020/12/07 08:33:49;;;;;;;;;;;28.30;54.90;;;;;;1823396;77;20169;-67
2020/12/07 08:36:19;;;;;;;;;;;28.20;54.50;;;;;;1867078;76;20168;-67
2020/12/07 08:38:50;;;;;;;;;;;28.30;54.00;;;;;;1847860;76;20442;-68
2020/12/07 08:41:23;;;;;;;;;;;28.30;54.30;;;;;;1852436;76;20468;-67
2020/12/07 08:43:54;;;;;;;;;;;28.30;54.00;;;;;;1850814;76;20228;-67
2020/12/07 08:46:25;;;;;;;;;;;28.30;54.30;;;;;;1852000;76;20187;-68
2020/12/07 08:48:56;;;;;;;;;;;28.30;55.60;;;;;;1853057;76;20221;-67
2020/12/07 08:51:27;;;;;;;;;;;28.30;54.50;;;;;;1855950;76;20229;-67
2020/12/07 08:53:57;;;;;;;;;;;28.30;55.20;;;;;;1842310;76;20252;-67
2020/12/07 08:56:27;;;;;;;;;;;28.20;55.20;;;;;;1844740;77;20178;-67
2020/12/07 08:58:57;;;;;;;;;;;28.20;56.00;;;;;;1843994;77;20188;-68
2020/12/07 09:01:27;;;;;;;;;;;28.20;56.70;;;;;;1806879;78;20512;-68
2020/12/07 09:03:57;;;;;;;;;;;28.20;55.20;;;;;;1822438;78;20178;-68
2020/12/07 09:06:27;;;;;;;;;;;28.10;54.90;;;;;;1814503;78;20135;-67
2020/12/07 09:08:57;;;;;;;;;;;28.10;55.00;;;;;;1826534;78;20484;-67
2020/12/07 09:11:27;;;;;;;;;;;28.10;54.80;;;;;;1820826;78;20655;-67
2020/12/07 09:13:57;;;;;;;;;;;28.10;55.00;;;;;;1823897;78;20151;-67
2020/12/07 09:16:27;;;;;;;;;;;28.00;54.80;;;;;;1821886;77;20163;-68
2020/12/07 09:18:58;;;;;;;;;;;28.00;55.80;;;;;;1826675;78;20532;-67
2020/12/07 09:21:27;;;;;;;;;;;28.00;55.30;;;;;;1827419;78;20170;-67
2020/12/07 09:23:57;;;;;;;;;;;28.00;55.80;;;;;;1824260;78;20185;-65
2020/12/07 09:26:27;;;;;;;;;;;28.00;54.60;;;;;;1828394;78;20296;-70
2020/12/07 09:28:57;;;;;;;;;;;27.90;54.50;;;;;;1825467;78;20166;-68
2020/12/07 09:31:26;;;;;;;;;;;27.90;55.20;;;;;;1814030;78;20244;-68
2020/12/07 09:33:56;;;;;;;;;;;27.90;54.60;;;;;;1779890;79;20229;-67
2020/12/07 09:36:26;;;;;;;;;;;27.90;55.30;;;;;;1808223;79;20168;-67
2020/12/07 09:38:56;;;;;;;;;;;27.90;55.60;;;;;;1810665;79;20223;-66
2020/12/07 09:41:26;;;;;;;;;;;27.80;54.90;;;;;;1805496;79;20215;-66
2020/12/07 09:43:56;;;;;;;;;;;27.80;55.70;;;;;;1828702;78;20556;-66
2020/12/07 09:46:26;;;;;;;;;;;27.80;55.40;;;;;;1826065;78;20221;-66
2020/12/07 09:48:57;;;;;;;;;;;27.70;55.70;;;;;;1819231;78;20131;-67
2020/12/07 09:51:27;;;;;;;;;;;27.70;55.60;;;;;;1821069;78;20217;-65
2020/12/07 09:53:57;;;;;;;;;;;27.60;55.60;;;;;;1820572;77;20419;-66
2020/12/07 09:56:28;;;;;;;;;;;27.60;55.70;;;;;;1825129;78;20230;-66
2020/12/07 09:59:07;;;;;;;;;;;27.50;55.60;;;;;;1819503;78;20501;-67
2020/12/07 10:01:37;;;;;;;;;;;27.50;55.50;;;;;;1818057;78;20473;-65
2020/12/07 10:04:08;;;;;;;;;;;27.50;55.80;;;;;;1823151;77;20696;-65
2020/12/07 10:06:38;;;;;;;;;;;27.40;56.20;;;;;;1817119;78;20249;-69
2020/12/07 10:09:08;;;;;;;;;;;27.40;56.30;;;;;;1826381;78;20162;-66
2020/12/07 10:11:38;;;;;;;;;;;27.30;55.80;;;;;;1824702;78;20161;-66
2020/12/07 10:14:08;;;;;;;;;;;27.30;56.40;;;;;;1820514;78;20442;-67
2020/12/07 10:16:39;;;;;;;;;;;27.30;56.80;;;;;;1817611;78;20175;-65
2020/12/07 10:19:13;;;;;;;;;;;27.20;56.80;;;;;;1814922;78;20187;-65
2020/12/07 10:21:43;;;;;;;;;;;27.20;56.50;;;;;;1822414;78;20214;-66
2020/12/07 10:24:13;;;;;;;;;;;27.20;56.70;;;;;;1814096;78;20519;-66
2020/12/07 10:26:42;;;;;;;;;;;27.20;56.90;;;;;;1822169;78;20123;-64
2020/12/07 10:29:12;;;;;;;;;;;27.20;56.90;;;;;;1826735;78;20332;-65
2020/12/07 10:31:45;;;;;;;;;;;27.10;57.00;;;;;;1823262;78;20243;-64
2020/12/07 10:34:15;;;;;;;;;;;27.10;57.00;;;;;;1830759;78;20229;-65
2020/12/07 10:36:47;;;;;;;;;;;27.00;57.10;;;;;;1822254;78;20249;-65
2020/12/07 10:39:18;;;;;;;;;;;27.00;57.10;;;;;;1823448;78;20219;-66
2020/12/07 10:41:47;;;;;;;;;;;27.00;57.10;;;;;;1821349;78;20241;-65
2020/12/07 10:44:17;;;;;;;;;;;26.90;57.30;;;;;;1817523;78;20237;-65
2020/12/07 10:46:48;;;;;;;;;;;26.90;57.40;;;;;;1823843;78;20241;-66
2020/12/07 10:49:19;;;;;;;;;;;26.80;57.60;;;;;;1815628;78;20187;-65
2020/12/07 10:51:49;;;;;;;;;;;26.80;57.60;;;;;;1829351;78;20155;-65
2020/12/07 10:54:19;;;;;;;;;;;26.80;57.70;;;;;;1829306;78;20209;-65
2020/12/07 10:56:50;;;;;;;;;;;26.70;57.70;;;;;;1846931;77;20150;-66
2020/12/07 10:59:20;;;;;;;;;;;26.70;57.80;;;;;;1847137;77;20201;-65
2020/12/07 11:01:54;;;;;;;;;;;26.70;57.90;;;;;;1847486;77;20123;-64
2020/12/07 11:04:30;;;;;;;;;;;26.60;57.90;;;;;;1819028;77;20196;-66
2020/12/07 11:06:59;;;;;;;;;;;26.60;57.50;;;;;;1845661;77;20217;-65
2020/12/07 11:09:28;;;;;;;;;;;26.60;58.20;;;;;;1843254;77;20450;-65
2020/12/07 11:12:04;;;;;;;;;;;26.60;58.10;;;;;;1859500;76;20460;-65
2020/12/07 11:14:30;;;;;;;;;;;26.60;58.20;;;;;;1779689;79;20254;-65
2020/12/07 11:17:00;;;;;;;;;;;26.50;58.30;;;;;;1848228;77;20224;-65
2020/12/07 11:19:30;;;;;;;;;;;26.50;58.30;;;;;;1816237;77;20498;-65
2020/12/07 11:22:03;;;;;;;;;;;26.50;58.40;;;;;;1842545;77;20485;-65
2020/12/07 11:24:33;;;;;;;;;;;26.50;58.50;;;;;;1847925;77;20399;-66
2020/12/07 11:27:08;;;;;;;;;;;26.50;58.50;;;;;;1810798;77;20267;-66
2020/12/07 11:29:38;;;;;;;;;;;26.50;58.50;;;;;;1846972;76;20383;-65
2020/12/07 11:32:08;;;;;;;;;;;26.40;58.60;;;;;;1848434;76;20178;-65
2020/12/07 11:34:38;;;;;;;;;;;26.40;58.60;;;;;;1848811;76;20520;-65
2020/12/07 11:37:09;;;;;;;;;;;26.40;58.70;;;;;;1846240;77;20170;-66
2020/12/07 11:44:42;;;;;;;;;;;26.30;58.80;;;;;;1845143;76;20251;-66
2020/12/07 11:47:13;;;;;;;;;;;26.30;58.90;;;;;;1845781;76;20218;-66
2020/12/07 11:49:48;;;;;;;;;;;26.30;59.00;;;;;;1843002;77;20193;-65
2020/12/07 11:52:16;;;;;;;;;;;26.30;59.10;;;;;;1847592;76;20257;-67
2020/12/07 11:54:48;;;;;;;;;;;26.20;59.10;;;;;;1834812;77;20281;-66
2020/12/07 11:57:21;;;;;;;;;;;26.20;59.20;;;;;;1839930;77;20209;-67
2020/12/07 11:59:51;;;;;;;;;;;26.20;59.20;;;;;;1841248;77;20221;-68
2020/12/07 12:02:21;;;;;;;;;;;26.20;59.30;;;;;;1838840;77;20237;-67
2020/12/07 12:04:54;;;;;;;;;;;26.10;59.30;;;;;;1839552;77;20230;-66
2020/12/07 12:07:24;;;;;;;;;;;26.10;59.30;;;;;;1838671;77;20172;-66
2020/12/07 12:09:55;;;;;;;;;;;26.10;59.60;;;;;;1837670;77;20225;-66
2020/12/07 12:12:26;;;;;;;;;;;26.10;59.50;;;;;;1840342;77;20194;-66
2020/12/07 12:14:57;;;;;;;;;;;26.10;59.60;;;;;;1839431;77;20437;-67
2020/12/07 12:17:26;;;;;;;;;;;26.10;59.70;;;;;;1841515;77;20241;-67
2020/12/07 12:20:02;;;;;;;;;;;26.00;59.70;;;;;;1839974;78;20225;-66
2020/12/07 12:22:29;;;;;;;;;;;26.00;59.80;;;;;;1825785;77;20236;-66
2020/12/07 12:25:04;;;;;;;;;;;26.00;59.80;;;;;;1809227;78;20233;-65
2020/12/07 12:27:34;;;;;;;;;;;26.00;59.90;;;;;;1844694;77;20166;-67
2020/12/07 12:30:04;;;;;;;;;;;26.00;60.00;;;;;;1844566;77;20229;-66
2020/12/07 12:32:34;;;;;;;;;;;25.90;60.00;;;;;;1844907;77;20256;-66
2020/12/07 12:35:04;;;;;;;;;;;25.90;60.30;;;;;;1840240;78;20449;-67
2020/12/07 12:37:34;;;;;;;;;;;25.90;60.20;;;;;;1836961;77;20225;-65
2020/12/07 12:40:03;;;;;;;;;;;25.90;60.20;;;;;;1842904;77;20217;-67
2020/12/07 12:42:33;;;;;;;;;;;25.90;60.50;;;;;;1839842;77;20178;-66
2020/12/07 12:45:04;;;;;;;;;;;25.90;60.60;;;;;;1836915;78;20198;-66
2020/12/07 12:47:34;;;;;;;;;;;25.80;60.60;;;;;;1841260;77;20276;-66
2020/12/07 12:50:04;;;;;;;;;;;25.80;61.20;;;;;;1841994;78;20252;-66
2020/12/07 12:52:34;;;;;;;;;;;25.80;60.60;;;;;;1840816;77;20185;-66
2020/12/07 12:55:05;;;;;;;;;;;25.80;61.30;;;;;;1833528;77;20183;-66
2020/12/07 12:57:35;;;;;;;;;;;25.80;61.20;;;;;;1773900;79;20251;-66
2020/12/07 13:00:06;;;;;;;;;;;25.80;61.10;;;;;;1842491;77;20440;-66
2020/12/07 13:02:36;;;;;;;;;;;25.80;60.90;;;;;;1778835;79;20143;-66
2020/12/07 13:05:06;;;;;;;;;;;25.70;60.90;;;;;;1813274;79;20137;-66
2020/12/07 13:07:36;;;;;;;;;;;25.70;60.90;;;;;;1843775;77;20279;-66
2020/12/07 13:10:07;;;;;;;;;;;25.70;61.10;;;;;;1844734;76;20481;-66
2020/12/07 13:12:38;;;;;;;;;;;25.80;61.20;;;;;;1840460;77;20352;-67
2020/12/07 13:15:12;;;;;;;;;;;25.70;61.10;;;;;;1839939;76;20231;-67
2020/12/07 13:17:44;;;;;;;;;;;25.70;61.10;;;;;;1818481;78;20596;-67
2020/12/07 13:20:14;;;;;;;;;;;25.70;61.20;;;;;;1823611;77;20474;-68
2020/12/07 13:22:53;;;;;;;;;;;25.70;61.20;;;;;;1829717;77;20189;-67
2020/12/07 13:25:23;;;;;;;;;;;25.70;61.60;;;;;;1824625;77;20162;-67
2020/12/07 13:27:54;;;;;;;;;;;25.70;61.40;;;;;;1820414;77;20175;-68
2020/12/07 13:30:19;;;;;;;;;;;25.60;61.30;;;;;;1828461;78;20206;-68
2020/12/07 13:32:49;;;;;;;;;;;25.60;61.30;;;;;;1845080;77;20503;-68
2020/12/07 13:35:18;;;;;;;;;;;25.60;61.50;;;;;;1847547;76;20248;-68
2020/12/07 13:37:50;;;;;;;;;;;25.60;61.30;;;;;;1825110;77;20158;-67
2020/12/07 13:40:21;;;;;;;;;;;25.60;61.60;;;;;;1774939;79;20253;-67
2020/12/07 13:42:51;;;;;;;;;;;25.60;61.60;;;;;;1781500;79;20210;-67
2020/12/07 13:45:21;;;;;;;;;;;25.60;61.70;;;;;;1845866;76;20676;-68
2020/12/07 13:47:51;;;;;;;;;;;25.50;61.60;;;;;;1826354;77;20233;-67
2020/12/07 13:50:22;;;;;;;;;;;25.50;61.50;;;;;;1828633;78;20158;-67
2020/12/07 13:52:52;;;;;;;;;;;25.50;62.00;;;;;;1826803;78;20284;-66
2020/12/07 13:55:24;;;;;;;;;;;25.50;62.30;;;;;;1827413;77;20469;-67
2020/12/07 13:57:54;;;;;;;;;;;25.50;62.10;;;;;;1858388;76;20178;-67
2020/12/07 14:00:24;;;;;;;;;;;25.50;62.50;;;;;;1854763;77;20205;-67
2020/12/07 14:02:54;;;;;;;;;;;25.50;62.10;;;;;;1838952;77;20525;-68
2020/12/07 14:05:24;;;;;;;;;;;25.50;62.50;;;;;;1843540;77;20201;-67
2020/12/07 14:07:54;;;;;;;;;;;25.50;62.60;;;;;;1853134;77;20165;-67
2020/12/07 14:10:24;;;;;;;;;;;25.40;62.70;;;;;;1860380;76;20165;-67
2020/12/07 14:12:54;;;;;;;;;;;25.40;62.70;;;;;;1859943;76;20237;-67
2020/12/07 14:15:26;;;;;;;;;;;25.40;62.50;;;;;;1851909;77;20599;-67
2020/12/07 14:18:11;;;;;;;;;;;25.30;62.60;;;;;;1853138;76;20200;-68
2020/12/07 14:20:36;;;;;;;;;;;25.40;62.70;;;;;;1857367;76;20268;-68
2020/12/07 14:23:10;;;;;;;;;;;25.30;62.40;;;;;;1858058;76;20220;-68
2020/12/07 14:28:35;;;;;;;;;;;25.30;62.10;;;;;;1833295;78;20209;-68
2020/12/07 14:31:52;;;;;;;;;;;25.30;62.00;;;;;;1827547;78;20220;-66
2020/12/07 14:40:43;;;;;;;;;;;25.20;62.00;;;;;;1830511;78;20221;-78
2020/12/07 14:43:16;;;;;;;;;;;25.20;62.30;;;;;;1824552;78;20193;-78
2020/12/07 14:48:18;;;;;;;;;;;25.20;62.50;;;;;;1809409;78;20529;-76
2020/12/07 14:50:53;;;;;;;;;;;25.10;62.50;;;;;;1824371;78;20450;-74
2020/12/07 14:53:27;;;;;;;;;;;25.10;62.80;;;;;;1819404;77;20166;-78
2020/12/07 15:06:05;;;;;;;;;;;24.90;63.30;;;;;;1823854;78;20161;-78
2020/12/07 15:11:26;;;;;;;;;;;24.90;63.20;;;;;;1827821;77;20261;-77
2020/12/07 15:13:51;;;;;;;;;;;24.80;63.90;;;;;;1824711;78;20394;-77
2020/12/07 15:16:15;;;;;;;;;;;24.80;64.20;;;;;;1843881;77;20619;-77
2020/12/07 15:18:45;;;;;;;;;;;24.70;64.20;;;;;;1835763;77;20166;-77
2020/12/07 15:21:18;;;;;;;;;;;24.70;64.10;;;;;;1829721;77;20191;-78
2020/12/07 15:23:48;;;;;;;;;;;24.60;63.80;;;;;;1839499;77;20190;-78
2020/12/07 15:26:18;;;;;;;;;;;24.60;64.40;;;;;;1840079;77;20244;-78
2020/12/07 15:28:50;;;;;;;;;;;24.60;64.30;;;;;;1835270;77;20192;-77
2020/12/07 15:31:27;;;;;;;;;;;24.50;64.50;;;;;;1837996;77;20190;-78
2020/12/07 15:33:53;;;;;;;;;;;24.50;64.80;;;;;;1841220;77;20329;-78
2020/12/07 15:36:29;;;;;;;;;;;24.50;65.20;;;;;;1836993;78;20201;-78
2020/12/07 15:39:01;;;;;;;;;;;24.40;65.30;;;;;;1835753;77;20214;-78
2020/12/07 15:41:31;;;;;;;;;;;24.30;65.60;;;;;;1835967;77;20249;-77